9 Max
7 km/h
5 Mini

LFMY 200630Z AUTO VRB01KT 3300 RA BR FEW018/// OVC064/// ///CB 20/20 Q1021 TEMPO VRB15KT TSRA BKN010 SCT060CB

TAF LFMY 200420Z 2003/2103 VRB03KT 9999 FEW045 SCT070 BKN100 TX28/2013Z TN20/2004Z TEMPO 2004/2007 4000 -RA BR PROB30 2007/2009 VRB15KT 4000 TSRA BKN010 SCT060CB BECMG 2009/2011 CAVOK BECMG 2013/2015 33010KT BECMG 2018/2020 VRB03KT